Time;durP1;ratioP1;P1;durP2;ratioP2;P2;SDS_P1;SDS_P2;PMS_P1;PMS_P2;Temp;Humidity;BMP_temperature;BMP_pressure;BME280_temperature;BME280_humidity;BME280_pressure;Samples;Min_cycle;Max_cycle;Signal;HPM_P1;HPM_P2
2022/05/30 00:00:47;;;;;;;1.30;0.90;;;;;;;8.18;68.15;100327.94;4958859;28;20012;-74
2022/05/30 00:03:19;;;;;;;1.17;0.65;;;;;;;8.28;67.17;100320.97;4911125;28;20054;-73
2022/05/30 00:05:47;;;;;;;1.10;0.75;;;;;;;8.38;66.95;100321.94;4936858;28;20051;-75
2022/05/30 00:08:15;;;;;;;0.88;0.70;;;;;;;8.37;67.38;100306.66;4957737;28;20051;-72
2022/05/30 00:10:43;;;;;;;0.88;0.60;;;;;;;8.52;66.85;100322.41;4940148;29;20051;-72
2022/05/30 00:13:10;;;;;;;1.30;0.60;;;;;;;8.58;66.99;100327.94;4949925;28;20040;-74
2022/05/30 00:15:40;;;;;;;0.98;0.50;;;;;;;8.65;66.68;100320.38;4949365;28;20038;-73
2022/05/30 00:18:09;;;;;;;0.50;0.50;;;;;;;8.79;66.29;100324.34;4936211;29;20019;-72
2022/05/30 00:20:37;;;;;;;0.52;0.52;;;;;;;8.85;66.07;100308.88;4952097;28;20027;-72
2022/05/30 00:23:04;;;;;;;2.50;0.68;;;;;;;8.89;65.56;100305.38;4921777;29;20453;-72
2022/05/30 00:25:29;;;;;;;0.95;0.70;;;;;;;8.98;65.47;100302.16;4942806;28;20086;-73
2022/05/30 00:27:56;;;;;;;1.00;0.75;;;;;;;9.03;65.73;100307.66;4940144;29;20023;-72
2022/05/30 00:33:00;;;;;;;1.27;0.70;;;;;;;9.07;65.87;100303.34;1111817;23;20352;-72
2022/05/30 00:35:25;;;;;;;1.95;0.90;;;;;;;9.04;66.15;100296.50;4970297;28;20440;-73
2022/05/30 00:37:51;;;;;;;2.22;1.08;;;;;;;9.01;65.54;100302.47;4958037;28;20528;-70
2022/05/30 00:40:19;;;;;;;2.50;0.95;;;;;;;8.87;65.82;100274.78;4924304;28;20062;-72
2022/05/30 00:42:46;;;;;;;1.70;0.63;;;;;;;8.88;65.90;100275.63;4941426;28;20034;-72
2022/05/30 00:45:12;;;;;;;0.70;0.60;;;;;;;8.99;65.82;100293.72;4921044;28;20039;-72
2022/05/30 00:47:38;;;;;;;0.68;0.60;;;;;;;9.06;65.62;100285.31;4950050;28;20043;-72
2022/05/30 00:50:06;;;;;;;2.15;0.77;;;;;;;9.14;65.07;100289.47;4927427;29;20757;-71
2022/05/30 00:52:39;;;;;;;1.67;0.85;;;;;;;9.20;65.67;100277.50;4949469;28;20069;-72
2022/05/30 00:55:09;;;;;;;0.95;0.68;;;;;;;9.32;64.92;100286.34;4956865;28;20027;-72
2022/05/30 00:57:37;;;;;;;0.90;0.60;;;;;;;9.33;65.33;100279.81;4968220;28;20038;-73
2022/05/30 01:00:14;;;;;;;1.13;0.60;;;;;;;9.41;64.77;100283.97;4948485;28;20022;-72
2022/05/30 01:02:41;;;;;;;0.80;0.77;;;;;;;9.42;65.04;100275.53;4960780;28;20015;-72
2022/05/30 01:07:54;;;;;;;0.50;0.50;;;;;;;9.50;64.40;100281.56;4961461;28;20030;-72
2022/05/30 01:10:21;;;;;;;0.77;0.70;;;;;;;9.51;64.27;100284.03;4969042;28;20091;-72
2022/05/30 01:12:55;;;;;;;2.28;0.75;;;;;;;9.49;64.77;100278.03;4974340;28;20057;-72
2022/05/30 01:15:26;;;;;;;1.02;0.50;;;;;;;9.51;64.68;100273.13;4968321;28;20022;-72
2022/05/30 01:17:59;;;;;;;1.73;0.75;;;;;;;9.54;64.58;100278.06;4969646;28;20110;-73
2022/05/30 01:20:31;;;;;;;1.15;0.70;;;;;;;9.53;64.23;100279.13;4968368;28;20030;-72
2022/05/30 01:23:28;;;;;;;0.98;0.88;;;;;;;9.51;64.60;100281.31;4967895;28;20038;-72
2022/05/30 01:26:35;;;;;;;3.30;0.95;;;;;;;9.46;65.00;100281.25;4958206;28;20032;-73
2022/05/30 01:29:04;;;;;;;1.58;1.10;;;;;;;9.40;64.50;100271.41;4962373;28;20432;-73
2022/05/30 01:31:30;;;;;;;1.70;1.05;;;;;;;9.36;64.94;100282.03;4964487;28;20027;-73
2022/05/30 01:33:56;;;;;;;1.25;1.10;;;;;;;9.31;65.18;100270.25;4975604;28;20065;-73
2022/05/30 01:36:28;;;;;;;1.45;0.90;;;;;;;9.28;65.25;100265.31;4959472;28;20485;-73
2022/05/30 01:38:54;;;;;;;1.73;1.00;;;;;;;9.21;65.16;100269.09;4957963;28;20637;-74
2022/05/30 01:41:19;;;;;;;1.23;0.85;;;;;;;9.14;65.83;100254.84;4944120;28;20070;-73
2022/05/30 01:43:45;;;;;;;1.00;0.77;;;;;;;9.15;65.76;100256.47;4948990;28;20027;-75
2022/05/30 01:46:17;;;;;;;0.85;0.68;;;;;;;9.10;65.22;100251.00;4958765;28;20169;-73
2022/05/30 01:48:45;;;;;;;1.50;0.80;;;;;;;9.13;64.81;100253.19;4957105;28;20186;-73
2022/05/30 01:51:11;;;;;;;2.08;1.00;;;;;;;9.12;65.56;100259.72;4952378;28;20035;-73
2022/05/30 01:53:37;;;;;;;0.68;0.60;;;;;;;9.09;64.99;100249.34;4940241;28;20037;-73
2022/05/30 01:56:03;;;;;;;0.50;0.50;;;;;;;9.08;65.58;100251.25;4948130;28;20113;-73
2022/05/30 01:58:30;;;;;;;0.90;0.70;;;;;;;9.09;64.97;100249.34;4954709;28;20374;-72
2022/05/30 02:00:55;;;;;;;1.83;0.60;;;;;;;9.06;65.54;100244.41;4919228;29;20016;-73
2022/05/30 02:03:21;;;;;;;1.63;0.65;;;;;;;9.03;64.63;100242.22;4930258;28;20035;-73
2022/05/30 02:05:46;;;;;;;0.70;0.70;;;;;;;8.98;65.70;100236.69;4936987;29;20031;-73
2022/05/30 02:08:16;;;;;;;1.42;0.90;;;;;;;8.98;65.67;100236.69;4969195;28;20473;-73
2022/05/30 02:10:42;;;;;;;2.40;1.13;;;;;;;8.95;65.56;100243.50;4939456;29;20038;-72
2022/05/30 02:13:07;;;;;;;1.70;0.90;;;;;;;8.89;65.31;100239.06;4943940;28;20398;-73
2022/05/30 02:17:00;;;;;;;1.42;1.00;;;;;;;8.83;65.69;100240.94;4925736;28;20030;-73
2022/05/30 02:18:19;;;;;;;0.85;0.60;;;;;;;8.88;65.57;100248.34;4964337;28;20062;-73
2022/05/30 02:20:48;;;;;;;1.67;0.88;;;;;;;8.95;66.31;100248.13;4932948;28;20038;-72
2022/05/30 02:23:14;;;;;;;1.60;0.77;;;;;;;9.00;65.85;100245.47;4957921;28;20027;-74
2022/05/30 02:25:40;;;;;;;1.40;1.00;;;;;;;9.01;66.22;100241.63;4943284;28;20030;-73
2022/05/30 02:28:05;;;;;;;2.42;1.17;;;;;;;8.91;65.91;100235.00;4957760;28;20346;-72
2022/05/30 02:30:31;;;;;;;1.98;0.90;;;;;;;8.94;66.52;100238.31;4952659;28;20034;-73
2022/05/30 02:36:38;;;;;;;1.75;0.98;;;;;;;8.96;66.51;100238.88;4948037;28;20404;-73
2022/05/30 02:38:25;;;;;;;1.07;0.80;;;;;;;9.02;66.17;100235.94;4958746;28;20139;-74
2022/05/30 02:40:53;;;;;;;0.73;0.52;;;;;;;9.03;65.89;100223.13;4945232;28;20775;-75
2022/05/30 02:43:18;;;;;;;0.45;0.45;;;;;;;9.10;66.21;100229.16;4942817;29;20031;-73
2022/05/30 02:45:44;;;;;;;0.63;0.63;;;;;;;9.13;65.74;100228.66;4958322;28;20086;-73
2022/05/30 02:48:12;;;;;;;1.73;0.60;;;;;;;9.07;65.94;100213.31;4945333;28;20038;-73
2022/05/30 02:50:38;;;;;;;0.60;0.60;;;;;;;9.11;65.41;100219.06;4930481;28;20070;-72
2022/05/30 02:53:04;;;;;;;0.82;0.50;;;;;;;9.17;65.62;100224.31;4944985;28;20413;-73
2022/05/30 02:55:32;;;;;;;0.68;0.40;;;;;;;9.12;65.61;100209.81;4961466;28;20035;-74
2022/05/30 02:57:58;;;;;;;0.80;0.50;;;;;;;9.21;65.76;100225.44;4946424;28;20093;-73
2022/05/30 03:00:26;;;;;;;0.60;0.50;;;;;;;9.25;65.09;100220.28;4976080;28;20118;-73
2022/05/30 03:02:56;;;;;;;0.50;0.50;;;;;;;9.20;65.04;100212.03;4955504;28;20034;-73
2022/05/30 03:05:35;;;;;;;1.08;0.65;;;;;;;9.21;65.08;100217.25;4943044;28;20031;-72
2022/05/30 03:08:04;;;;;;;0.60;0.50;;;;;;;9.16;65.04;100206.28;4938016;28;20050;-74
2022/05/30 03:10:30;;;;;;;1.33;0.80;;;;;;;9.22;65.18;100221.59;4961963;28;20095;-75
2022/05/30 03:12:55;;;;;;;1.23;0.90;;;;;;;9.21;65.98;100220.00;4971947;28;20042;-73
2022/05/30 03:15:21;;;;;;;2.38;0.90;;;;;;;9.17;65.69;100216.13;4969434;28;20429;-73
2022/05/30 03:17:51;;;;;;;0.63;0.55;;;;;;;9.14;65.29;100224.84;4949294;28;20432;-72
2022/05/30 03:20:20;;;;;;;1.60;1.00;;;;;;;9.06;66.27;100208.94;4941025;28;20027;-73
2022/05/30 03:22:47;;;;;;;1.25;0.65;;;;;;;9.04;65.99;100205.66;4953667;28;20051;-74
2022/05/30 03:25:14;;;;;;;0.88;0.80;;;;;;;9.07;66.01;100213.31;4969099;28;20035;-74
2022/05/30 03:27:43;;;;;;;0.75;0.52;;;;;;;8.98;66.13;100206.69;4971829;28;20033;-72
2022/05/30 03:30:11;;;;;;;4.05;0.95;;;;;;;8.96;66.50;100206.94;4950371;28;20039;-73
2022/05/30 03:32:57;;;;;;;0.80;0.80;;;;;;;8.89;65.82;100201.75;4957495;28;20067;-74
2022/05/30 03:38:16;;;;;;;2.33;0.80;;;;;;;8.94;66.14;100200.13;5213510;23;20059;-74
2022/05/30 03:40:42;;;;;;;0.50;0.50;;;;;;;8.97;66.61;100196.88;4960627;28;20035;-73
2022/05/30 03:43:10;;;;;;;1.15;0.75;;;;;;;8.99;66.83;100205.63;4969762;28;20106;-71
2022/05/30 03:45:43;;;;;;;1.40;0.70;;;;;;;8.96;66.12;100201.50;4959971;28;20012;-73
2022/05/30 03:48:15;;;;;;;1.98;0.65;;;;;;;8.93;66.90;100193.03;4947181;28;20071;-74
2022/05/30 03:50:47;;;;;;;0.88;0.70;;;;;;;8.95;66.66;100199.03;4964767;28;20051;-74
2022/05/30 03:53:14;;;;;;;2.40;0.80;;;;;;;8.94;66.97;100202.88;4953481;28;20031;-74
2022/05/30 03:55:44;;;;;;;2.63;0.98;;;;;;;8.84;68.39;100193.50;4961445;28;20050;-73
2022/05/30 03:58:11;;;;;;;3.80;1.15;;;;;;;8.79;68.01;100193.47;4960795;28;20027;-73
2022/05/30 04:00:39;;;;;;;1.58;0.90;;;;;;;8.74;68.69;100193.41;4966353;28;20109;-72
2022/05/30 04:03:14;;;;;;;0.80;0.68;;;;;;;8.65;68.05;100178.63;4959248;28;20034;-73
2022/05/30 04:05:42;;;;;;;1.67;0.73;;;;;;;8.67;68.49;100171.00;4961978;28;20097;-72
2022/05/30 04:08:18;;;;;;;1.25;0.80;;;;;;;8.81;68.33;100194.03;4928601;29;20031;-72
2022/05/30 04:10:45;;;;;;;2.97;0.88;;;;;;;8.80;68.23;100186.91;4957551;28;20043;-73
2022/05/30 04:13:11;;;;;;;1.10;0.80;;;;;;;8.80;68.50;100192.38;4958236;28;20042;-74
2022/05/30 04:15:37;;;;;;;1.08;0.60;;;;;;;8.74;67.97;100182.50;4932954;29;20019;-74
2022/05/30 04:18:19;;;;;;;1.17;0.60;;;;;;;8.74;67.87;100179.78;4977949;28;20563;-74
2022/05/30 04:26:37;;;;;;;1.13;0.95;;;;;;;8.89;68.32;100188.09;4947797;28;20039;-74
2022/05/30 04:29:04;;;;;;;2.60;1.17;;;;;;;8.89;69.50;100190.81;4935434;28;20496;-74
2022/05/30 04:31:30;;;;;;;1.88;1.08;;;;;;;8.97;68.26;100188.72;4950488;28;20020;-73
2022/05/30 04:33:55;;;;;;;1.20;0.90;;;;;;;9.03;68.85;100185.75;4926817;28;20031;-75
2022/05/30 04:36:22;;;;;;;1.25;0.90;;;;;;;9.15;68.73;100182.81;4914528;28;20055;-72
2022/05/30 04:38:47;;;;;;;2.85;1.00;;;;;;;9.23;68.07;100181.53;4950444;28;20035;-72
2022/05/30 04:41:13;;;;;;;0.63;0.63;;;;;;;9.30;67.97;100184.00;4932605;29;20039;-73
2022/05/30 04:43:38;;;;;;;1.98;1.15;;;;;;;9.30;68.16;100181.28;4933506;29;20034;-72
2022/05/30 04:46:17;;;;;;;1.63;0.80;;;;;;;9.31;68.05;100177.47;4912938;29;20062;-72
2022/05/30 04:48:44;;;;;;;1.25;0.70;;;;;;;9.30;68.13;100168.47;4947864;28;20055;-72
2022/05/30 04:51:10;;;;;;;1.90;1.00;;;;;;;9.35;67.69;100175.88;4945131;28;20032;-72
2022/05/30 04:53:35;;;;;;;1.67;1.00;;;;;;;9.39;67.34;100166.06;4950551;28;20019;-72
2022/05/30 04:56:01;;;;;;;1.48;0.90;;;;;;;9.43;67.30;100169.88;4918692;29;20090;-73
2022/05/30 04:58:28;;;;;;;1.05;0.63;;;;;;;9.46;67.45;100168.53;4947685;28;20102;-73
2022/05/30 05:01:03;;;;;;;1.30;0.57;;;;;;;9.48;67.38;100161.75;4949223;28;20057;-72
2022/05/30 05:03:31;;;;;;;2.38;0.80;;;;;;;9.53;67.12;100164.47;4950303;28;20030;-74
2022/05/30 05:06:06;;;;;;;1.52;1.08;;;;;;;9.64;66.67;100172.72;4943450;29;20464;-72
2022/05/30 05:08:53;;;;;;;1.27;0.90;;;;;;;9.67;66.68;100172.22;4956199;28;20126;-71
2022/05/30 05:11:26;;;;;;;1.27;0.90;;;;;;;9.69;66.20;100175.50;4946436;28;20081;-72
2022/05/30 05:13:52;;;;;;;1.63;0.90;;;;;;;9.67;66.23;100161.28;4943777;29;20026;-72
2022/05/30 05:16:19;;;;;;;2.35;0.98;;;;;;;9.88;66.39;100171.19;4949831;28;20174;-72
2022/05/30 05:18:46;;;;;;;1.00;0.70;;;;;;;9.98;65.93;100173.13;4947636;28;20540;-72
2022/05/30 05:21:20;;;;;;;1.33;0.75;;;;;;;10.06;65.94;100169.06;4951729;28;20793;-73
2022/05/30 05:23:46;;;;;;;0.80;0.80;;;;;;;10.19;65.74;100165.00;4956829;28;20027;-71
2022/05/30 05:26:12;;;;;;;2.08;0.90;;;;;;;10.27;65.65;100162.56;4958929;28;20079;-73
2022/05/30 05:28:38;;;;;;;0.70;0.63;;;;;;;10.38;65.48;100168.06;4953917;28;20094;-70
2022/05/30 05:31:06;;;;;;;1.10;0.80;;;;;;;10.48;65.01;100170.81;4953202;28;20043;-73
2022/05/30 05:33:32;;;;;;;4.82;0.90;;;;;;;10.55;64.64;100165.91;4925311;28;20034;-73
2022/05/30 05:35:58;;;;;;;1.20;0.70;;;;;;;10.60;64.49;100174.13;4957904;28;20031;-73
2022/05/30 05:38:23;;;;;;;2.38;1.17;;;;;;;10.59;65.88;100164.28;4934317;28;20097;-75
2022/05/30 05:40:49;;;;;;;4.75;1.33;;;;;;;10.58;66.28;100170.81;4925762;28;20031;-75
2022/05/30 05:43:14;;;;;;;3.67;1.35;;;;;;;10.57;66.11;100173.84;4942784;28;20043;-74
2022/05/30 05:45:42;;;;;;;2.67;1.42;;;;;;;10.56;66.46;100167.56;4921116;28;20098;-76
2022/05/30 05:48:08;;;;;;;1.45;1.20;;;;;;;10.57;66.87;100168.38;4947987;28;20485;-74
2022/05/30 05:50:38;;;;;;;2.55;1.20;;;;;;;10.65;66.70;100165.91;4944368;29;20130;-74
2022/05/30 05:53:03;;;;;;;1.45;1.00;;;;;;;10.69;66.19;100163.47;4938293;29;20059;-76
2022/05/30 05:55:29;;;;;;;2.55;1.23;;;;;;;10.74;66.11;100168.13;4947515;28;20058;-76
2022/05/30 05:57:54;;;;;;;3.30;1.40;;;;;;;10.71;66.21;100164.00;4950831;28;20023;-75
2022/05/30 06:00:20;;;;;;;3.70;1.30;;;;;;;10.76;66.35;100168.66;4906934;29;20124;-75
2022/05/30 06:02:45;;;;;;;6.90;1.40;;;;;;;10.77;66.51;100167.56;4907529;28;20027;-77
2022/05/30 06:05:11;;;;;;;1.70;1.15;;;;;;;10.87;66.46;100170.28;4947390;28;20090;-74
2022/05/30 06:07:39;;;;;;;1.17;1.08;;;;;;;11.08;65.91;100167.53;4932590;29;20046;-76
2022/05/30 06:10:07;;;;;;;3.35;1.30;;;;;;;11.35;65.47;100154.34;4931247;29;20110;-72
2022/05/30 06:12:38;;;;;;;3.72;1.00;;;;;;;11.68;64.71;100153.97;4949786;28;20032;-74
2022/05/30 06:15:05;;;;;;;3.35;1.20;;;;;;;11.93;63.57;100166.78;4935699;28;20031;-73
2022/05/30 06:17:33;;;;;;;2.10;1.63;;;;;;;12.00;63.16;100171.94;4940406;28;20028;-73
2022/05/30 06:19:59;;;;;;;1.15;0.90;;;;;;;12.01;62.84;100166.19;4929945;29;20478;-73
2022/05/30 06:22:25;;;;;;;2.17;1.40;;;;;;;12.14;62.37;100161.19;4938062;28;20038;-72
2022/05/30 06:24:51;;;;;;;3.08;1.15;;;;;;;12.30;61.58;100170.16;4934071;29;20042;-72
2022/05/30 06:27:20;;;;;;;2.35;1.50;;;;;;;12.35;60.70;100170.09;4937150;28;20090;-73
2022/05/30 06:29:47;;;;;;;3.30;1.35;;;;;;;12.47;60.68;100178.81;4950851;28;20516;-74
2022/05/30 06:32:13;;;;;;;1.73;1.30;;;;;;;12.54;60.51;100176.56;4948651;28;20067;-73
2022/05/30 06:34:38;;;;;;;3.58;1.60;;;;;;;12.67;59.63;100172.34;4944749;28;20035;-75
2022/05/30 06:37:04;;;;;;;4.15;1.52;;;;;;;12.70;59.37;100171.78;4909447;28;20035;-77
2022/05/30 06:39:30;;;;;;;3.10;1.30;;;;;;;12.86;59.89;100163.41;4912611;28;20094;-74
2022/05/30 06:41:55;;;;;;;6.00;1.50;;;;;;;13.21;59.48;100173.22;4927075;29;20054;-76
2022/05/30 06:44:21;;;;;;;1.70;1.00;;;;;;;13.46;58.85;100173.31;4935541;28;20039;-75
2022/05/30 06:46:46;;;;;;;2.33;1.40;;;;;;;13.44;57.61;100177.16;4950411;28;21749;-73
2022/05/30 06:49:12;;;;;;;3.58;1.83;;;;;;;13.39;57.46;100179.97;4937999;29;20540;-74
2022/05/30 06:51:39;;;;;;;4.43;1.52;;;;;;;13.20;57.93;100177.09;4964162;28;20028;-73
2022/05/30 06:54:06;;;;;;;3.00;1.48;;;;;;;13.00;58.15;100169.06;4930517;29;20023;-73
2022/05/30 06:56:34;;;;;;;2.90;1.50;;;;;;;12.88;59.36;100172.19;4954781;28;20035;-72
2022/05/30 06:59:00;;;;;;;2.85;1.77;;;;;;;12.95;58.74;100180.06;4930025;29;20070;-73
2022/05/30 07:01:33;;;;;;;1.40;1.00;;;;;;;13.21;58.41;100181.47;4947513;28;20028;-73
2022/05/30 07:03:58;;;;;;;2.38;1.50;;;;;;;13.66;57.99;100173.06;4947920;28;20023;-73
2022/05/30 07:06:27;;;;;;;2.67;1.35;;;;;;;13.81;57.53;100172.06;4954722;28;20035;-73
2022/05/30 07:08:53;;;;;;;2.20;1.60;;;;;;;13.86;57.35;100179.44;4941109;28;20020;-73
2022/05/30 07:11:22;;;;;;;3.17;1.50;;;;;;;13.88;57.54;100168.97;4914790;28;20397;-72
2022/05/30 07:13:47;;;;;;;2.70;1.48;;;;;;;13.87;57.99;100172.81;4955618;28;20062;-72
2022/05/30 07:16:13;;;;;;;5.78;2.03;;;;;;;13.76;58.09;100172.94;4926462;29;20034;-73
2022/05/30 07:18:45;;;;;;;5.43;2.05;;;;;;;13.76;59.16;100178.44;4951116;28;20109;-72
2022/05/30 07:21:13;;;;;;;2.42;1.30;;;;;;;13.71;58.67;100164.78;4933318;29;20475;-73
2022/05/30 07:23:39;;;;;;;4.47;1.67;;;;;;;13.68;58.98;100179.09;4949255;28;20030;-73
2022/05/30 07:26:24;;;;;;;4.55;1.88;;;;;;;13.63;59.47;100178.34;4950529;28;20051;-74
2022/05/30 07:28:55;;;;;;;2.85;1.45;;;;;;;13.60;60.04;100174.25;4954000;28;20032;-73
2022/05/30 07:31:26;;;;;;;5.60;1.60;;;;;;;13.61;59.67;100175.88;4945199;29;20054;-73
2022/05/30 07:34:05;;;;;;;;;;;;;;;;;;;;;
2022/05/30 07:36:36;;;;;;;3.50;1.48;;;;;;;13.56;60.17;100175.94;4950711;28;20525;-74
2022/05/30 07:39:04;;;;;;;2.92;1.50;;;;;;;13.41;60.65;100172.25;4959163;28;20020;-75
2022/05/30 07:41:39;;;;;;;7.95;2.22;;;;;;;13.24;61.00;100177.34;4930889;29;20497;-74
2022/05/30 07:44:08;;;;;;;2.80;1.63;;;;;;;12.99;62.08;100162.75;4947751;28;20066;-72
2022/05/30 07:46:38;;;;;;;2.17;1.45;;;;;;;12.88;62.67;100169.44;4924450;29;20062;-73
2022/05/30 07:49:06;;;;;;;5.38;1.52;;;;;;;12.85;63.11;100159.03;4955348;28;20032;-73
2022/05/30 07:51:32;;;;;;;4.25;1.67;;;;;;;13.07;62.88;100175.84;4926481;29;20050;-73
2022/05/30 07:53:58;;;;;;;3.22;1.55;;;;;;;13.19;62.84;100171.91;4954070;28;20050;-72
2022/05/30 07:56:24;;;;;;;1.75;1.35;;;;;;;13.23;62.82;100159.25;4954313;28;20026;-72
2022/05/30 07:58:57;;;;;;;2.42;1.45;;;;;;;13.65;61.55;100171.41;4939395;28;20016;-73
2022/05/30 08:01:32;;;;;;;2.08;1.20;;;;;;;14.13;61.30;100170.53;4932750;28;20075;-73
2022/05/30 08:03:57;;;;;;;2.95;1.30;;;;;;;14.70;59.45;100178.81;4953712;28;20074;-74
2022/05/30 08:06:25;;;;;;;2.90;1.08;;;;;;;14.90;58.25;100174.09;4954169;28;20077;-72
2022/05/30 08:08:52;;;;;;;2.38;1.00;;;;;;;14.99;57.99;100153.81;4952334;28;20027;-75
2022/05/30 08:11:20;;;;;;;2.72;1.02;;;;;;;15.02;57.55;100152.41;4935964;28;20050;-72
2022/05/30 08:13:46;;;;;;;6.68;1.10;;;;;;;14.82;57.49;100151.66;4939239;28;20024;-73
2022/05/30 08:16:21;;;;;;;1.95;0.93;;;;;;;14.59;58.53;100167.13;4939320;28;20105;-72
2022/05/30 08:18:46;;;;;;;2.55;1.25;;;;;;;14.30;58.59;100164.53;4934122;28;20111;-73
2022/05/30 08:21:17;;;;;;;1.45;1.20;;;;;;;14.11;59.68;100172.78;4924195;28;20574;-73
2022/05/30 08:23:43;;;;;;;3.60;1.55;;;;;;;13.91;60.20;100158.19;4951543;28;20094;-73
2022/05/30 08:26:15;;;;;;;3.03;1.20;;;;;;;13.93;60.82;100149.63;4952639;28;20049;-73
2022/05/30 08:33:04;;;;;;;;;;;;;;;;;;;;;
2022/05/30 08:35:38;;;;;;;3.97;1.23;;;;;;;14.82;56.89;100159.91;4884618;29;20119;-74
2022/05/30 08:38:09;;;;;;;2.33;1.10;;;;;;;14.88;56.06;100148.78;4882587;29;20129;-75
2022/05/30 08:43:30;;;;;;;3.58;1.10;;;;;;;14.76;56.45;100163.88;4958694;28;20075;-72
2022/05/30 08:47:00;;;;;;;;;;;;;;;;;;;;;
2022/05/30 08:56:35;;;;;;;4.72;1.08;;;;;;;14.51;57.98;100120.22;4857116;29;20353;-72
2022/05/30 08:59:31;;;;;;;2.67;0.90;;;;;;;15.21;56.60;100146.03;4920609;28;20047;-73
2022/05/30 09:02:03;;;;;;;5.05;1.10;;;;;;;15.25;55.78;100123.06;4945815;28;20023;-72
2022/05/30 09:04:45;;;;;;;1.67;1.00;;;;;;;15.32;55.65;100123.47;4932681;28;20122;-74
2022/05/30 09:07:16;;;;;;;7.47;1.48;;;;;;;15.42;55.38;100127.16;4940173;28;20107;-74
2022/05/30 09:10:13;;;;;;;1.92;0.90;;;;;;;15.47;55.45;100140.84;4951124;28;20146;-72
2022/05/30 09:12:47;;;;;;;3.20;1.45;;;;;;;15.99;54.06;100124.06;4928948;28;20027;-73
2022/05/30 09:15:24;;;;;;;4.72;1.23;;;;;;;16.60;52.20;100127.34;4942228;28;20039;-72
2022/05/30 09:18:04;;;;;;;3.40;0.82;;;;;;;16.75;51.43;100131.69;4949147;28;20035;-73
2022/05/30 09:20:31;;;;;;;1.17;0.90;;;;;;;16.68;50.96;100123.03;4947399;28;20490;-73
2022/05/30 09:22:56;;;;;;;5.20;1.10;;;;;;;16.89;50.24;100118.66;4946340;28;20023;-73
2022/05/30 09:28:12;;;;;;;3.63;1.33;;;;;;;16.93;49.48;100111.34;4955522;28;20557;-73
2022/05/30 09:30:54;;;;;;;1.83;0.70;;;;;;;17.15;48.77;100109.66;4933358;28;20119;-75
2022/05/30 09:33:32;;;;;;;2.65;0.80;;;;;;;17.31;47.54;100112.81;4946046;28;20031;-74
2022/05/30 09:36:21;;;;;;;2.05;0.90;;;;;;;17.02;47.88;100105.84;4933041;28;20031;-75
2022/05/30 09:38:49;;;;;;;4.13;1.17;;;;;;;17.14;47.40;100102.50;4935733;29;20393;-72
2022/05/30 09:41:38;;;;;;;3.38;0.85;;;;;;;17.16;47.52;100094.72;4940908;28;20078;-74
2022/05/30 09:44:10;;;;;;;1.70;0.90;;;;;;;17.81;46.96;100103.38;4941836;28;20035;-71
2022/05/30 09:46:56;;;;;;;4.45;1.20;;;;;;;18.42;45.43;100108.16;4949341;28;20117;-72
2022/05/30 09:49:37;;;;;;;1.15;0.80;;;;;;;18.61;43.70;100105.84;4953987;28;20027;-73
2022/05/30 09:52:26;;;;;;;8.77;1.38;;;;;;;18.36;43.88;100090.09;4953783;28;20025;-73
2022/05/30 09:54:54;;;;;;;1.77;0.90;;;;;;;18.43;44.13;100091.22;4951052;28;21048;-73
2022/05/30 09:57:43;;;;;;;2.22;0.82;;;;;;;18.21;44.21;100100.53;4947075;28;20032;-73
2022/05/30 10:00:49;;;;;;;3.85;1.50;;;;;;;18.05;43.17;100091.09;4935930;29;20490;-73
2022/05/30 10:03:44;;;;;;;0.95;0.77;;;;;;;17.94;43.10;100088.59;4951472;28;20135;-74
2022/05/30 10:06:16;;;;;;;5.25;1.10;;;;;;;17.55;44.35;100079.25;4939262;28;20036;-73
2022/05/30 10:08:43;;;;;;;3.80;0.90;;;;;;;17.13;45.35;100089.84;4937821;28;20050;-75
2022/05/30 10:11:32;;;;;;;2.55;1.15;;;;;;;16.85;46.14;100075.34;4948833;28;20048;-74
2022/05/30 10:14:04;;;;;;;2.53;0.93;;;;;;;16.91;47.03;100074.94;4931887;29;20036;-74
2022/05/30 10:16:35;;;;;;;5.72;1.20;;;;;;;18.13;46.68;100095.78;4948975;28;20055;-74
2022/05/30 10:19:11;;;;;;;3.63;1.30;;;;;;;18.76;44.75;100098.19;4953724;28;20028;-74
2022/05/30 10:28:27;;;;;;;2.25;1.02;;;;;;;19.68;42.62;100100.47;4953079;28;20418;-74
2022/05/30 10:31:08;;;;;;;2.42;0.85;;;;;;;19.75;40.64;100093.56;4934626;28;20035;-74
2022/05/30 10:33:48;;;;;;;3.50;1.00;;;;;;;19.42;41.44;100119.16;4953407;28;20552;-74
2022/05/30 10:36:49;;;;;;;1.13;0.50;;;;;;;19.24;41.57;100091.53;4935576;29;20067;-74
2022/05/30 10:39:48;;;;;;;3.47;0.68;;;;;;;19.15;40.87;100093.53;4915844;28;20044;-76
2022/05/30 10:42:23;;;;;;;6.55;0.63;;;;;;;19.01;40.96;100100.09;4951997;28;20110;-74
2022/05/30 10:45:00;;;;;;;3.25;0.60;;;;;;;20.22;40.14;100096.16;4950590;28;20023;-75
2022/05/30 10:47:48;;;;;;;0.80;0.47;;;;;;;21.66;36.07;100100.38;4944716;28;20032;-75
2022/05/30 10:50:22;;;;;;;2.28;0.40;;;;;;;21.26;35.92;100093.47;4911678;29;20489;-74
2022/05/30 10:53:02;;;;;;;1.58;0.57;;;;;;;20.22;37.29;100093.41;4954191;28;20032;-75
2022/05/30 10:55:36;;;;;;;3.58;1.10;;;;;;;19.48;38.32;100093.72;4948386;28;20042;-78
2022/05/30 10:58:08;;;;;;;9.57;2.92;;;;;;;18.82;39.33;100107.94;4947208;28;20455;-77
2022/05/30 11:00:40;;;;;;;5.20;1.42;;;;;;;18.58;40.57;100103.75;4932265;29;20470;-76
2022/05/30 11:03:24;;;;;;;3.22;0.80;;;;;;;18.65;41.36;100098.53;4929039;29;20075;-77
2022/05/30 11:05:55;;;;;;;1.98;0.93;;;;;;;18.55;42.40;100098.88;4949340;28;20051;-79
2022/05/30 11:08:37;;;;;;;1.48;0.90;;;;;;;17.88;44.38;100086.31;4934169;29;20545;-76
2022/05/30 11:11:11;;;;;;;1.70;1.02;;;;;;;17.29;46.64;100093.00;4946673;28;20038;-75
2022/05/30 11:13:44;;;;;;;1.58;1.02;;;;;;;16.82;48.02;100096.16;4929955;29;20074;-76
2022/05/30 11:16:44;;;;;;;4.60;0.88;;;;;;;16.32;49.79;100088.00;4953036;28;20015;-76
2022/05/30 11:19:39;;;;;;;3.53;0.90;;;;;;;16.10;49.61;100086.06;4927434;28;20117;-76
2022/05/30 11:22:46;;;;;;;2.47;0.95;;;;;;;16.06;50.70;100091.38;4948306;28;20039;-74
2022/05/30 11:25:15;;;;;;;0.70;0.60;;;;;;;15.93;51.05;100103.25;4929096;28;20127;-73
2022/05/30 11:28:10;;;;;;;1.30;0.47;;;;;;;16.17;50.87;100084.50;4951604;28;20047;-74
2022/05/30 11:30:53;;;;;;;1.15;0.70;;;;;;;16.23;51.58;100074.97;4948561;28;20031;-73
2022/05/30 11:33:31;;;;;;;1.27;0.70;;;;;;;16.50;51.16;100078.75;4937498;29;20122;-74
2022/05/30 11:36:12;;;;;;;2.05;0.68;;;;;;;16.79;50.93;100069.16;4961988;28;20051;-75
2022/05/30 11:38:44;;;;;;;1.48;0.70;;;;;;;17.52;49.06;100074.38;4926118;29;20656;-74
2022/05/30 11:41:40;;;;;;;3.72;0.70;;;;;;;18.22;47.11;100065.34;4947276;28;20023;-73
2022/05/30 11:44:23;;;;;;;2.80;1.10;;;;;;;19.14;45.22;100069.72;4964707;28;20069;-72
2022/05/30 11:47:01;;;;;;;1.42;0.80;;;;;;;21.98;40.03;100067.97;4949262;28;20054;-72
2022/05/30 11:49:42;;;;;;;1.83;0.70;;;;;;;24.10;35.89;100063.44;4943610;28;20348;-74
2022/05/30 11:53:04;;;;;;;2.60;0.90;;;;;;;27.12;31.28;100061.56;4941533;28;20537;-73
2022/05/30 11:56:04;;;;;;;1.73;0.55;;;;;;;32.28;23.57;100075.59;4930834;29;20492;-74
2022/05/30 11:59:20;;;;;;;0.82;0.52;;;;;;;30.96;24.58;100060.28;4945805;28;20038;-70
2022/05/30 12:01:53;;;;;;;1.58;0.77;;;;;;;29.60;24.90;100050.44;4946553;28;20023;-72
2022/05/30 12:04:50;;;;;;;1.13;0.70;;;;;;;26.87;27.46;100058.53;4950034;28;20455;-72
2022/05/30 12:07:22;;;;;;;2.40;1.27;;;;;;;24.42;30.92;100055.69;4933417;29;20122;-71
2022/05/30 12:10:34;;;;;;;5.55;0.77;;;;;;;22.68;32.52;100052.84;4933138;29;20035;-72
2022/05/30 12:12:59;;;;;;;2.42;1.20;;;;;;;21.69;34.05;100055.97;4892271;29;20127;-72
2022/05/30 12:15:40;;;;;;;2.20;1.02;;;;;;;21.21;35.65;100047.25;4909609;29;20112;-70
2022/05/30 12:24:15;;;;;;;2.67;1.17;;;;;;;23.90;31.39;100041.06;4917995;29;20088;-72
2022/05/30 12:27:02;;;;;;;3.45;0.70;;;;;;;26.03;29.77;100016.75;4922152;29;20051;-72
2022/05/30 12:29:40;;;;;;;3.35;0.88;;;;;;;29.25;24.22;100015.50;4912455;29;20035;-74
2022/05/30 12:32:16;;;;;;;1.20;0.80;;;;;;;29.27;24.45;100015.88;4890803;29;20020;-72
2022/05/30 12:35:20;;;;;;;1.33;0.65;;;;;;;29.57;24.25;100028.69;4911686;29;20028;-78
2022/05/30 12:38:09;;;;;;;1.75;0.68;;;;;;;30.98;23.11;100038.09;4940947;28;20038;-72
2022/05/30 12:41:20;;;;;;;4.75;0.80;;;;;;;35.15;17.33;100034.59;4943156;29;20055;-74
2022/05/30 12:43:49;;;;;;;2.78;1.13;;;;;;;38.15;14.66;100037.38;4926623;29;20146;-76